sensor_id;sensor_type;location;lat;lon;timestamp;P1;durP1;ratioP1;P2;durP2;ratioP2
62861;SDS011;48953;53.110;5.592;2022-07-29T00:00:01;1.75;;;1.00;;
62861;SDS011;48953;53.110;5.592;2022-07-29T00:02:28;1.90;;;0.90;;
62861;SDS011;48953;53.110;5.592;2022-07-29T00:04:54;4.45;;;1.00;;
62861;SDS011;48953;53.110;5.592;2022-07-29T00:07:20;1.20;;;0.93;;
62861;SDS011;48953;53.110;5.592;2022-07-29T00:09:45;1.00;;;0.77;;
62861;SDS011;48953;53.110;5.592;2022-07-29T00:12:11;1.67;;;0.90;;
62861;SDS011;48953;53.110;5.592;2022-07-29T00:14:36;1.73;;;0.95;;
62861;SDS011;48953;53.110;5.592;2022-07-29T00:17:02;1.50;;;0.98;;
62861;SDS011;48953;53.110;5.592;2022-07-29T00:19:28;1.75;;;0.90;;
62861;SDS011;48953;53.110;5.592;2022-07-29T00:21:53;2.10;;;1.25;;
62861;SDS011;48953;53.110;5.592;2022-07-29T00:24:19;2.58;;;1.10;;
62861;SDS011;48953;53.110;5.592;2022-07-29T00:26:44;7.07;;;1.83;;
62861;SDS011;48953;53.110;5.592;2022-07-29T00:29:10;2.22;;;1.10;;
62861;SDS011;48953;53.110;5.592;2022-07-29T00:31:36;2.00;;;1.20;;
62861;SDS011;48953;53.110;5.592;2022-07-29T00:34:01;0.82;;;0.80;;
62861;SDS011;48953;53.110;5.592;2022-07-29T00:36:27;2.70;;;1.30;;
62861;SDS011;48953;53.110;5.592;2022-07-29T00:38:53;2.33;;;1.23;;
62861;SDS011;48953;53.110;5.592;2022-07-29T00:41:19;1.13;;;1.02;;
62861;SDS011;48953;53.110;5.592;2022-07-29T00:43:45;1.67;;;1.20;;
62861;SDS011;48953;53.110;5.592;2022-07-29T00:46:11;1.80;;;1.38;;
62861;SDS011;48953;53.110;5.592;2022-07-29T00:48:37;3.15;;;1.50;;
62861;SDS011;48953;53.110;5.592;2022-07-29T00:51:03;1.17;;;1.05;;
62861;SDS011;48953;53.110;5.592;2022-07-29T00:53:30;2.50;;;1.20;;
62861;SDS011;48953;53.110;5.592;2022-07-29T00:55:57;2.33;;;1.20;;
62861;SDS011;48953;53.110;5.592;2022-07-29T00:58:24;1.70;;;1.10;;
62861;SDS011;48953;53.110;5.592;2022-07-29T01:00:51;4.43;;;1.13;;
62861;SDS011;48953;53.110;5.592;2022-07-29T01:03:17;2.53;;;1.17;;
62861;SDS011;48953;53.110;5.592;2022-07-29T01:05:43;2.28;;;1.30;;
62861;SDS011;48953;53.110;5.592;2022-07-29T01:08:11;2.28;;;0.90;;
62861;SDS011;48953;53.110;5.592;2022-07-29T01:10:37;3.55;;;1.38;;
62861;SDS011;48953;53.110;5.592;2022-07-29T01:13:04;3.10;;;1.35;;
62861;SDS011;48953;53.110;5.592;2022-07-29T01:15:30;1.77;;;0.85;;
62861;SDS011;48953;53.110;5.592;2022-07-29T01:18:00;1.27;;;1.00;;
62861;SDS011;48953;53.110;5.592;2022-07-29T01:20:59;3.55;;;1.10;;
62861;SDS011;48953;53.110;5.592;2022-07-29T01:26:20;3.20;;;1.13;;
62861;SDS011;48953;53.110;5.592;2022-07-29T01:29:00;1.70;;;1.20;;
62861;SDS011;48953;53.110;5.592;2022-07-29T01:31:35;4.53;;;1.25;;
62861;SDS011;48953;53.110;5.592;2022-07-29T01:34:16;2.95;;;1.20;;
62861;SDS011;48953;53.110;5.592;2022-07-29T01:36:48;2.22;;;1.00;;
62861;SDS011;48953;53.110;5.592;2022-07-29T01:39:30;1.42;;;1.10;;
62861;SDS011;48953;53.110;5.592;2022-07-29T01:42:05;2.75;;;1.02;;
62861;SDS011;48953;53.110;5.592;2022-07-29T01:47:31;2.42;;;1.20;;
62861;SDS011;48953;53.110;5.592;2022-07-29T01:50:02;2.45;;;1.38;;
62861;SDS011;48953;53.110;5.592;2022-07-29T01:52:54;1.42;;;1.00;;
62861;SDS011;48953;53.110;5.592;2022-07-29T01:55:21;2.22;;;1.40;;
62861;SDS011;48953;53.110;5.592;2022-07-29T01:57:49;3.03;;;1.38;;
62861;SDS011;48953;53.110;5.592;2022-07-29T02:00:15;1.77;;;1.10;;
62861;SDS011;48953;53.110;5.592;2022-07-29T02:02:42;5.40;;;1.23;;
62861;SDS011;48953;53.110;5.592;2022-07-29T02:05:10;3.97;;;1.20;;
62861;SDS011;48953;53.110;5.592;2022-07-29T02:07:40;2.58;;;1.00;;
62861;SDS011;48953;53.110;5.592;2022-07-29T02:10:07;6.78;;;1.42;;
62861;SDS011;48953;53.110;5.592;2022-07-29T02:12:34;1.67;;;1.10;;
62861;SDS011;48953;53.110;5.592;2022-07-29T02:15:02;4.78;;;1.52;;
62861;SDS011;48953;53.110;5.592;2022-07-29T02:17:41;2.13;;;1.50;;
62861;SDS011;48953;53.110;5.592;2022-07-29T02:20:16;2.33;;;1.33;;
62861;SDS011;48953;53.110;5.592;2022-07-29T02:22:42;2.40;;;1.30;;
62861;SDS011;48953;53.110;5.592;2022-07-29T02:25:09;1.63;;;1.38;;
62861;SDS011;48953;53.110;5.592;2022-07-29T02:27:36;3.97;;;1.40;;
62861;SDS011;48953;53.110;5.592;2022-07-29T02:30:04;2.55;;;1.30;;
62861;SDS011;48953;53.110;5.592;2022-07-29T02:32:32;2.90;;;1.35;;
62861;SDS011;48953;53.110;5.592;2022-07-29T02:35:00;3.17;;;1.45;;
62861;SDS011;48953;53.110;5.592;2022-07-29T02:37:27;1.88;;;1.65;;
62861;SDS011;48953;53.110;5.592;2022-07-29T02:39:54;2.13;;;1.23;;
62861;SDS011;48953;53.110;5.592;2022-07-29T02:42:21;2.40;;;1.25;;
62861;SDS011;48953;53.110;5.592;2022-07-29T02:44:48;3.53;;;1.55;;
62861;SDS011;48953;53.110;5.592;2022-07-29T02:50:06;3.95;;;1.60;;
62861;SDS011;48953;53.110;5.592;2022-07-29T02:52:41;3.97;;;1.63;;
62861;SDS011;48953;53.110;5.592;2022-07-29T02:55:18;2.10;;;1.50;;
62861;SDS011;48953;53.110;5.592;2022-07-29T02:57:51;4.40;;;1.50;;
62861;SDS011;48953;53.110;5.592;2022-07-29T03:00:31;6.20;;;1.92;;
62861;SDS011;48953;53.110;5.592;2022-07-29T03:02:59;3.67;;;1.60;;
62861;SDS011;48953;53.110;5.592;2022-07-29T03:05:28;3.58;;;1.90;;
62861;SDS011;48953;53.110;5.592;2022-07-29T03:08:04;2.45;;;1.60;;
62861;SDS011;48953;53.110;5.592;2022-07-29T03:10:32;1.77;;;1.60;;
62861;SDS011;48953;53.110;5.592;2022-07-29T03:12:58;4.57;;;1.73;;
62861;SDS011;48953;53.110;5.592;2022-07-29T03:15:26;2.95;;;1.60;;
62861;SDS011;48953;53.110;5.592;2022-07-29T03:17:52;3.75;;;1.70;;
62861;SDS011;48953;53.110;5.592;2022-07-29T03:20:18;2.25;;;1.50;;
62861;SDS011;48953;53.110;5.592;2022-07-29T03:22:44;3.90;;;1.80;;
62861;SDS011;48953;53.110;5.592;2022-07-29T03:25:13;4.88;;;1.77;;
62861;SDS011;48953;53.110;5.592;2022-07-29T03:27:41;4.97;;;1.58;;
62861;SDS011;48953;53.110;5.592;2022-07-29T03:30:08;1.70;;;1.42;;
62861;SDS011;48953;53.110;5.592;2022-07-29T03:32:34;2.00;;;1.30;;
62861;SDS011;48953;53.110;5.592;2022-07-29T03:35:00;2.42;;;1.50;;
62861;SDS011;48953;53.110;5.592;2022-07-29T03:37:27;2.63;;;1.85;;
62861;SDS011;48953;53.110;5.592;2022-07-29T03:39:52;3.60;;;1.65;;
62861;SDS011;48953;53.110;5.592;2022-07-29T03:42:21;2.33;;;1.48;;
62861;SDS011;48953;53.110;5.592;2022-07-29T03:44:50;4.15;;;1.77;;
62861;SDS011;48953;53.110;5.592;2022-07-29T03:47:19;3.65;;;1.52;;
62861;SDS011;48953;53.110;5.592;2022-07-29T03:49:48;4.70;;;1.80;;
62861;SDS011;48953;53.110;5.592;2022-07-29T03:52:15;3.17;;;1.50;;
62861;SDS011;48953;53.110;5.592;2022-07-29T03:54:41;2.45;;;1.75;;
62861;SDS011;48953;53.110;5.592;2022-07-29T03:57:07;3.30;;;1.45;;
62861;SDS011;48953;53.110;5.592;2022-07-29T03:59:35;2.22;;;1.83;;
62861;SDS011;48953;53.110;5.592;2022-07-29T04:02:03;2.92;;;1.50;;
62861;SDS011;48953;53.110;5.592;2022-07-29T04:04:32;5.20;;;1.75;;
62861;SDS011;48953;53.110;5.592;2022-07-29T04:06:59;3.87;;;1.80;;
62861;SDS011;48953;53.110;5.592;2022-07-29T04:09:25;5.45;;;3.10;;
62861;SDS011;48953;53.110;5.592;2022-07-29T04:11:51;3.08;;;1.70;;
62861;SDS011;48953;53.110;5.592;2022-07-29T04:14:17;2.45;;;1.63;;
62861;SDS011;48953;53.110;5.592;2022-07-29T04:16:43;3.60;;;1.50;;
62861;SDS011;48953;53.110;5.592;2022-07-29T04:19:09;2.20;;;1.40;;
62861;SDS011;48953;53.110;5.592;2022-07-29T04:21:38;2.78;;;1.52;;
62861;SDS011;48953;53.110;5.592;2022-07-29T04:24:04;3.53;;;1.90;;
62861;SDS011;48953;53.110;5.592;2022-07-29T04:26:30;2.47;;;1.40;;
62861;SDS011;48953;53.110;5.592;2022-07-29T04:28:56;1.77;;;1.50;;
62861;SDS011;48953;53.110;5.592;2022-07-29T04:31:21;3.38;;;1.40;;
62861;SDS011;48953;53.110;5.592;2022-07-29T04:33:47;2.70;;;1.45;;
62861;SDS011;48953;53.110;5.592;2022-07-29T04:36:12;1.50;;;1.20;;
62861;SDS011;48953;53.110;5.592;2022-07-29T04:38:38;2.15;;;1.42;;
62861;SDS011;48953;53.110;5.592;2022-07-29T04:41:04;2.70;;;1.40;;
62861;SDS011;48953;53.110;5.592;2022-07-29T04:43:32;3.67;;;1.83;;
62861;SDS011;48953;53.110;5.592;2022-07-29T04:45:58;2.10;;;1.25;;
62861;SDS011;48953;53.110;5.592;2022-07-29T04:48:24;2.50;;;1.60;;
62861;SDS011;48953;53.110;5.592;2022-07-29T04:50:50;7.95;;;1.40;;
62861;SDS011;48953;53.110;5.592;2022-07-29T04:53:15;2.05;;;1.45;;
62861;SDS011;48953;53.110;5.592;2022-07-29T04:55:41;2.67;;;1.45;;
62861;SDS011;48953;53.110;5.592;2022-07-29T04:58:07;2.97;;;1.33;;
62861;SDS011;48953;53.110;5.592;2022-07-29T05:00:32;1.83;;;1.23;;
62861;SDS011;48953;53.110;5.592;2022-07-29T05:02:58;4.05;;;1.50;;
62861;SDS011;48953;53.110;5.592;2022-07-29T05:05:23;6.63;;;1.45;;
62861;SDS011;48953;53.110;5.592;2022-07-29T05:07:49;2.00;;;1.20;;
62861;SDS011;48953;53.110;5.592;2022-07-29T05:10:14;4.28;;;1.38;;
62861;SDS011;48953;53.110;5.592;2022-07-29T05:12:40;3.78;;;1.50;;
62861;SDS011;48953;53.110;5.592;2022-07-29T05:15:05;1.98;;;1.27;;
62861;SDS011;48953;53.110;5.592;2022-07-29T05:17:31;2.78;;;1.58;;
62861;SDS011;48953;53.110;5.592;2022-07-29T05:19:57;4.90;;;1.80;;
62861;SDS011;48953;53.110;5.592;2022-07-29T05:22:22;1.80;;;1.30;;
62861;SDS011;48953;53.110;5.592;2022-07-29T05:24:48;2.70;;;1.17;;
62861;SDS011;48953;53.110;5.592;2022-07-29T05:27:14;4.45;;;1.55;;
62861;SDS011;48953;53.110;5.592;2022-07-29T05:29:39;2.55;;;1.13;;
62861;SDS011;48953;53.110;5.592;2022-07-29T05:32:05;3.15;;;1.17;;
62861;SDS011;48953;53.110;5.592;2022-07-29T05:34:32;2.60;;;1.15;;
62861;SDS011;48953;53.110;5.592;2022-07-29T05:36:58;1.45;;;1.15;;
62861;SDS011;48953;53.110;5.592;2022-07-29T05:39:23;2.22;;;1.45;;
62861;SDS011;48953;53.110;5.592;2022-07-29T05:41:49;2.55;;;1.30;;
62861;SDS011;48953;53.110;5.592;2022-07-29T05:44:15;2.25;;;1.27;;
62861;SDS011;48953;53.110;5.592;2022-07-29T05:46:41;2.53;;;1.40;;
62861;SDS011;48953;53.110;5.592;2022-07-29T05:49:06;2.38;;;1.20;;
62861;SDS011;48953;53.110;5.592;2022-07-29T05:51:35;2.08;;;1.02;;
62861;SDS011;48953;53.110;5.592;2022-07-29T05:54:01;5.63;;;1.30;;
62861;SDS011;48953;53.110;5.592;2022-07-29T05:56:27;2.13;;;1.25;;
62861;SDS011;48953;53.110;5.592;2022-07-29T05:58:53;3.42;;;1.30;;
62861;SDS011;48953;53.110;5.592;2022-07-29T06:01:18;2.28;;;1.08;;
62861;SDS011;48953;53.110;5.592;2022-07-29T06:03:44;2.53;;;0.93;;
62861;SDS011;48953;53.110;5.592;2022-07-29T06:06:10;1.98;;;0.80;;
62861;SDS011;48953;53.110;5.592;2022-07-29T06:08:36;3.15;;;0.98;;
62861;SDS011;48953;53.110;5.592;2022-07-29T06:11:02;1.40;;;1.10;;
62861;SDS011;48953;53.110;5.592;2022-07-29T06:13:28;1.67;;;0.90;;
62861;SDS011;48953;53.110;5.592;2022-07-29T06:15:54;2.25;;;1.10;;
62861;SDS011;48953;53.110;5.592;2022-07-29T06:18:20;2.35;;;1.10;;
62861;SDS011;48953;53.110;5.592;2022-07-29T06:20:48;4.32;;;1.17;;
62861;SDS011;48953;53.110;5.592;2022-07-29T06:23:20;1.45;;;0.82;;
62861;SDS011;48953;53.110;5.592;2022-07-29T06:25:46;3.42;;;1.00;;
62861;SDS011;48953;53.110;5.592;2022-07-29T06:28:12;3.50;;;1.10;;
62861;SDS011;48953;53.110;5.592;2022-07-29T06:30:38;6.55;;;1.27;;
62861;SDS011;48953;53.110;5.592;2022-07-29T06:33:04;3.60;;;1.10;;
62861;SDS011;48953;53.110;5.592;2022-07-29T06:35:30;2.90;;;1.05;;
62861;SDS011;48953;53.110;5.592;2022-07-29T06:37:58;2.63;;;0.98;;
62861;SDS011;48953;53.110;5.592;2022-07-29T06:40:24;3.38;;;1.27;;
62861;SDS011;48953;53.110;5.592;2022-07-29T06:43:08;3.38;;;2.05;;
62861;SDS011;48953;53.110;5.592;2022-07-29T06:45:33;4.53;;;1.23;;
62861;SDS011;48953;53.110;5.592;2022-07-29T06:47:59;3.38;;;1.30;;
62861;SDS011;48953;53.110;5.592;2022-07-29T06:50:25;3.58;;;1.55;;
62861;SDS011;48953;53.110;5.592;2022-07-29T06:52:50;2.20;;;1.10;;
62861;SDS011;48953;53.110;5.592;2022-07-29T06:55:16;3.85;;;1.02;;
62861;SDS011;48953;53.110;5.592;2022-07-29T06:57:44;4.13;;;1.10;;
62861;SDS011;48953;53.110;5.592;2022-07-29T07:00:10;3.40;;;1.15;;
62861;SDS011;48953;53.110;5.592;2022-07-29T07:02:36;2.55;;;1.00;;
62861;SDS011;48953;53.110;5.592;2022-07-29T07:05:01;3.65;;;1.10;;
62861;SDS011;48953;53.110;5.592;2022-07-29T07:07:27;3.22;;;0.90;;
62861;SDS011;48953;53.110;5.592;2022-07-29T07:09:53;4.32;;;1.23;;
62861;SDS011;48953;53.110;5.592;2022-07-29T07:12:19;3.33;;;1.10;;
62861;SDS011;48953;53.110;5.592;2022-07-29T07:14:44;2.75;;;1.50;;
62861;SDS011;48953;53.110;5.592;2022-07-29T07:17:10;3.85;;;1.10;;
62861;SDS011;48953;53.110;5.592;2022-07-29T07:19:36;2.33;;;1.02;;
62861;SDS011;48953;53.110;5.592;2022-07-29T07:22:01;2.28;;;1.00;;
62861;SDS011;48953;53.110;5.592;2022-07-29T07:24:27;3.97;;;1.40;;
62861;SDS011;48953;53.110;5.592;2022-07-29T07:26:52;2.45;;;1.17;;
62861;SDS011;48953;53.110;5.592;2022-07-29T07:29:18;2.45;;;1.23;;
62861;SDS011;48953;53.110;5.592;2022-07-29T07:31:43;9.25;;;1.25;;
62861;SDS011;48953;53.110;5.592;2022-07-29T07:34:10;3.97;;;1.20;;
62861;SDS011;48953;53.110;5.592;2022-07-29T07:36:36;4.20;;;1.08;;
62861;SDS011;48953;53.110;5.592;2022-07-29T07:39:02;2.50;;;0.85;;
62861;SDS011;48953;53.110;5.592;2022-07-29T07:41:28;1.90;;;0.90;;
62861;SDS011;48953;53.110;5.592;2022-07-29T07:43:54;2.25;;;1.20;;
62861;SDS011;48953;53.110;5.592;2022-07-29T07:46:19;3.35;;;1.20;;
62861;SDS011;48953;53.110;5.592;2022-07-29T07:48:45;4.47;;;1.27;;
62861;SDS011;48953;53.110;5.592;2022-07-29T07:51:10;3.17;;;1.15;;
62861;SDS011;48953;53.110;5.592;2022-07-29T07:53:36;3.17;;;1.30;;
62861;SDS011;48953;53.110;5.592;2022-07-29T07:56:02;3.28;;;1.85;;
62861;SDS011;48953;53.110;5.592;2022-07-29T07:58:29;3.80;;;1.15;;
62861;SDS011;48953;53.110;5.592;2022-07-29T08:00:54;3.10;;;1.85;;
62861;SDS011;48953;53.110;5.592;2022-07-29T08:03:20;1.30;;;0.95;;
62861;SDS011;48953;53.110;5.592;2022-07-29T08:05:46;3.58;;;1.30;;
62861;SDS011;48953;53.110;5.592;2022-07-29T08:08:13;3.00;;;1.42;;
62861;SDS011;48953;53.110;5.592;2022-07-29T08:10:38;2.13;;;1.35;;
62861;SDS011;48953;53.110;5.592;2022-07-29T08:13:24;3.55;;;1.17;;
62861;SDS011;48953;53.110;5.592;2022-07-29T08:15:53;3.33;;;1.15;;
62861;SDS011;48953;53.110;5.592;2022-07-29T08:18:27;3.50;;;1.35;;
62861;SDS011;48953;53.110;5.592;2022-07-29T08:20:54;1.92;;;1.73;;
62861;SDS011;48953;53.110;5.592;2022-07-29T08:23:20;3.63;;;1.25;;
62861;SDS011;48953;53.110;5.592;2022-07-29T08:25:46;2.70;;;1.40;;
62861;SDS011;48953;53.110;5.592;2022-07-29T08:28:11;3.20;;;1.00;;
62861;SDS011;48953;53.110;5.592;2022-07-29T08:30:37;3.40;;;1.60;;
62861;SDS011;48953;53.110;5.592;2022-07-29T08:33:03;3.72;;;1.42;;
62861;SDS011;48953;53.110;5.592;2022-07-29T08:35:28;3.38;;;1.40;;
62861;SDS011;48953;53.110;5.592;2022-07-29T08:37:54;4.28;;;1.80;;
62861;SDS011;48953;53.110;5.592;2022-07-29T08:40:21;3.95;;;1.45;;
62861;SDS011;48953;53.110;5.592;2022-07-29T08:42:48;5.03;;;1.40;;
62861;SDS011;48953;53.110;5.592;2022-07-29T08:45:15;2.78;;;1.38;;
62861;SDS011;48953;53.110;5.592;2022-07-29T08:47:41;3.70;;;1.42;;
62861;SDS011;48953;53.110;5.592;2022-07-29T08:50:09;7.78;;;1.38;;
62861;SDS011;48953;53.110;5.592;2022-07-29T08:52:35;3.25;;;1.38;;
62861;SDS011;48953;53.110;5.592;2022-07-29T08:55:04;4.10;;;1.40;;
62861;SDS011;48953;53.110;5.592;2022-07-29T08:57:30;2.58;;;1.38;;
62861;SDS011;48953;53.110;5.592;2022-07-29T08:59:59;3.38;;;1.45;;
62861;SDS011;48953;53.110;5.592;2022-07-29T09:02:28;4.32;;;1.30;;
62861;SDS011;48953;53.110;5.592;2022-07-29T09:04:57;4.38;;;1.35;;
62861;SDS011;48953;53.110;5.592;2022-07-29T09:07:26;5.53;;;1.48;;
62861;SDS011;48953;53.110;5.592;2022-07-29T09:09:51;2.97;;;1.45;;
62861;SDS011;48953;53.110;5.592;2022-07-29T09:12:17;3.60;;;1.60;;
62861;SDS011;48953;53.110;5.592;2022-07-29T09:14:43;7.03;;;1.83;;
62861;SDS011;48953;53.110;5.592;2022-07-29T09:17:09;3.17;;;1.33;;
62861;SDS011;48953;53.110;5.592;2022-07-29T09:19:36;2.53;;;1.40;;
62861;SDS011;48953;53.110;5.592;2022-07-29T09:22:03;5.07;;;1.65;;
62861;SDS011;48953;53.110;5.592;2022-07-29T09:27:19;1.75;;;1.40;;
62861;SDS011;48953;53.110;5.592;2022-07-29T09:29:47;2.15;;;1.65;;
62861;SDS011;48953;53.110;5.592;2022-07-29T09:32:23;5.07;;;1.45;;
62861;SDS011;48953;53.110;5.592;2022-07-29T09:34:49;4.03;;;1.60;;
62861;SDS011;48953;53.110;5.592;2022-07-29T09:37:27;5.47;;;1.67;;
62861;SDS011;48953;53.110;5.592;2022-07-29T09:42:29;3.78;;;1.20;;
62861;SDS011;48953;53.110;5.592;2022-07-29T09:44:57;3.55;;;1.60;;
62861;SDS011;48953;53.110;5.592;2022-07-29T09:47:23;3.25;;;1.33;;
62861;SDS011;48953;53.110;5.592;2022-07-29T09:50:14;4.10;;;1.70;;
62861;SDS011;48953;53.110;5.592;2022-07-29T09:52:44;4.38;;;1.50;;
62861;SDS011;48953;53.110;5.592;2022-07-29T09:55:11;7.30;;;1.83;;
62861;SDS011;48953;53.110;5.592;2022-07-29T09:57:37;3.95;;;1.77;;
62861;SDS011;48953;53.110;5.592;2022-07-29T10:00:04;4.90;;;1.70;;
62861;SDS011;48953;53.110;5.592;2022-07-29T10:02:36;4.13;;;1.77;;
62861;SDS011;48953;53.110;5.592;2022-07-29T10:05:04;3.78;;;1.60;;
62861;SDS011;48953;53.110;5.592;2022-07-29T10:10:26;3.95;;;1.67;;
62861;SDS011;48953;53.110;5.592;2022-07-29T10:12:55;3.50;;;1.70;;
62861;SDS011;48953;53.110;5.592;2022-07-29T10:15:23;2.17;;;1.40;;
62861;SDS011;48953;53.110;5.592;2022-07-29T10:17:50;2.63;;;1.50;;
62861;SDS011;48953;53.110;5.592;2022-07-29T10:20:16;2.33;;;1.70;;
62861;SDS011;48953;53.110;5.592;2022-07-29T10:22:42;2.28;;;1.55;;
62861;SDS011;48953;53.110;5.592;2022-07-29T10:25:09;5.55;;;1.67;;
62861;SDS011;48953;53.110;5.592;2022-07-29T10:27:35;2.40;;;1.60;;
62861;SDS011;48953;53.110;5.592;2022-07-29T10:30:01;4.28;;;2.03;;
62861;SDS011;48953;53.110;5.592;2022-07-29T10:43:52;3.58;;;1.95;;
62861;SDS011;48953;53.110;5.592;2022-07-29T10:46:21;3.97;;;1.58;;
62861;SDS011;48953;53.110;5.592;2022-07-29T10:49:06;5.10;;;1.73;;
62861;SDS011;48953;53.110;5.592;2022-07-29T11:05:01;5.38;;;2.60;;
62861;SDS011;48953;53.110;5.592;2022-07-29T11:07:32;3.28;;;1.73;;
62861;SDS011;48953;53.110;5.592;2022-07-29T11:15:11;4.07;;;2.30;;
62861;SDS011;48953;53.110;5.592;2022-07-29T11:18:02;3.40;;;2.20;;
62861;SDS011;48953;53.110;5.592;2022-07-29T11:20:36;6.15;;;2.22;;
62861;SDS011;48953;53.110;5.592;2022-07-29T11:23:17;4.28;;;2.35;;
62861;SDS011;48953;53.110;5.592;2022-07-29T11:25:45;2.83;;;2.17;;
62861;SDS011;48953;53.110;5.592;2022-07-29T11:28:31;4.78;;;2.22;;
62861;SDS011;48953;53.110;5.592;2022-07-29T11:30:58;4.60;;;2.17;;
62861;SDS011;48953;53.110;5.592;2022-07-29T11:33:32;3.70;;;2.00;;
62861;SDS011;48953;53.110;5.592;2022-07-29T11:36:08;3.28;;;2.00;;
62861;SDS011;48953;53.110;5.592;2022-07-29T11:38:34;8.02;;;2.63;;
62861;SDS011;48953;53.110;5.592;2022-07-29T11:43:48;8.13;;;2.42;;
62861;SDS011;48953;53.110;5.592;2022-07-29T11:46:41;6.20;;;2.45;;
62861;SDS011;48953;53.110;5.592;2022-07-29T11:49:23;5.05;;;2.67;;
62861;SDS011;48953;53.110;5.592;2022-07-29T11:51:52;3.60;;;2.22;;
62861;SDS011;48953;53.110;5.592;2022-07-29T11:54:21;6.22;;;2.30;;
62861;SDS011;48953;53.110;5.592;2022-07-29T11:56:51;4.25;;;2.85;;
62861;SDS011;48953;53.110;5.592;2022-07-29T11:59:17;3.90;;;2.20;;
62861;SDS011;48953;53.110;5.592;2022-07-29T12:01:53;5.53;;;2.60;;
62861;SDS011;48953;53.110;5.592;2022-07-29T12:04:19;5.35;;;2.30;;
62861;SDS011;48953;53.110;5.592;2022-07-29T12:06:51;4.88;;;2.22;;
62861;SDS011;48953;53.110;5.592;2022-07-29T12:09:18;2.88;;;2.40;;
62861;SDS011;48953;53.110;5.592;2022-07-29T12:11:44;4.13;;;2.47;;
62861;SDS011;48953;53.110;5.592;2022-07-29T12:14:27;4.68;;;2.25;;
62861;SDS011;48953;53.110;5.592;2022-07-29T12:16:53;7.10;;;2.75;;
62861;SDS011;48953;53.110;5.592;2022-07-29T12:19:19;5.90;;;2.45;;
62861;SDS011;48953;53.110;5.592;2022-07-29T12:24:11;6.97;;;3.13;;
62861;SDS011;48953;53.110;5.592;2022-07-29T12:26:48;5.10;;;2.60;;
62861;SDS011;48953;53.110;5.592;2022-07-29T12:29:17;6.28;;;2.63;;
62861;SDS011;48953;53.110;5.592;2022-07-29T12:31:44;6.55;;;2.90;;
62861;SDS011;48953;53.110;5.592;2022-07-29T12:34:10;5.50;;;2.40;;
62861;SDS011;48953;53.110;5.592;2022-07-29T12:36:40;9.52;;;3.00;;
62861;SDS011;48953;53.110;5.592;2022-07-29T12:39:07;4.20;;;2.60;;
62861;SDS011;48953;53.110;5.592;2022-07-29T12:41:34;4.78;;;2.53;;
62861;SDS011;48953;53.110;5.592;2022-07-29T12:44:00;5.75;;;3.33;;
62861;SDS011;48953;53.110;5.592;2022-07-29T12:46:25;3.88;;;2.40;;
62861;SDS011;48953;53.110;5.592;2022-07-29T12:48:52;5.03;;;2.83;;
62861;SDS011;48953;53.110;5.592;2022-07-29T12:56:35;5.22;;;3.15;;
62861;SDS011;48953;53.110;5.592;2022-07-29T13:01:45;8.23;;;2.83;;
62861;SDS011;48953;53.110;5.592;2022-07-29T13:07:06;6.15;;;2.55;;
62861;SDS011;48953;53.110;5.592;2022-07-29T13:09:36;6.20;;;2.65;;
62861;SDS011;48953;53.110;5.592;2022-07-29T13:12:10;4.72;;;3.03;;
62861;SDS011;48953;53.110;5.592;2022-07-29T13:14:41;5.72;;;3.03;;
62861;SDS011;48953;53.110;5.592;2022-07-29T13:17:18;5.32;;;2.72;;
62861;SDS011;48953;53.110;5.592;2022-07-29T13:19:49;4.60;;;2.55;;
62861;SDS011;48953;53.110;5.592;2022-07-29T13:22:17;4.50;;;2.88;;
62861;SDS011;48953;53.110;5.592;2022-07-29T13:27:20;8.20;;;2.70;;
62861;SDS011;48953;53.110;5.592;2022-07-29T13:29:47;5.88;;;3.45;;
62861;SDS011;48953;53.110;5.592;2022-07-29T13:32:16;5.00;;;2.90;;
62861;SDS011;48953;53.110;5.592;2022-07-29T13:34:41;5.85;;;3.10;;
62861;SDS011;48953;53.110;5.592;2022-07-29T13:37:07;6.03;;;3.35;;
62861;SDS011;48953;53.110;5.592;2022-07-29T13:39:32;4.10;;;2.78;;
62861;SDS011;48953;53.110;5.592;2022-07-29T13:41:58;5.78;;;2.75;;
62861;SDS011;48953;53.110;5.592;2022-07-29T13:44:24;5.25;;;3.10;;
62861;SDS011;48953;53.110;5.592;2022-07-29T13:46:49;6.68;;;3.42;;
62861;SDS011;48953;53.110;5.592;2022-07-29T13:49:15;7.35;;;3.22;;
62861;SDS011;48953;53.110;5.592;2022-07-29T13:51:41;5.85;;;3.00;;
62861;SDS011;48953;53.110;5.592;2022-07-29T13:54:06;6.68;;;3.40;;
62861;SDS011;48953;53.110;5.592;2022-07-29T13:56:33;7.15;;;3.13;;
62861;SDS011;48953;53.110;5.592;2022-07-29T13:58:59;7.38;;;3.20;;
62861;SDS011;48953;53.110;5.592;2022-07-29T14:01:25;6.85;;;3.22;;
62861;SDS011;48953;53.110;5.592;2022-07-29T14:03:52;6.28;;;3.60;;
62861;SDS011;48953;53.110;5.592;2022-07-29T14:06:18;6.30;;;3.92;;
62861;SDS011;48953;53.110;5.592;2022-07-29T14:08:44;6.55;;;3.50;;
62861;SDS011;48953;53.110;5.592;2022-07-29T14:11:09;3.63;;;3.15;;
62861;SDS011;48953;53.110;5.592;2022-07-29T14:13:35;4.82;;;3.00;;
62861;SDS011;48953;53.110;5.592;2022-07-29T14:16:00;6.65;;;3.03;;
62861;SDS011;48953;53.110;5.592;2022-07-29T14:18:26;4.32;;;3.13;;
62861;SDS011;48953;53.110;5.592;2022-07-29T14:20:52;8.35;;;3.45;;
62861;SDS011;48953;53.110;5.592;2022-07-29T14:23:18;4.93;;;3.33;;
62861;SDS011;48953;53.110;5.592;2022-07-29T14:25:43;5.70;;;3.97;;
62861;SDS011;48953;53.110;5.592;2022-07-29T14:28:09;4.72;;;2.88;;
62861;SDS011;48953;53.110;5.592;2022-07-29T14:30:34;5.35;;;3.17;;
62861;SDS011;48953;53.110;5.592;2022-07-29T14:33:00;6.32;;;3.40;;
62861;SDS011;48953;53.110;5.592;2022-07-29T14:35:26;5.30;;;2.90;;
62861;SDS011;48953;53.110;5.592;2022-07-29T14:37:52;5.05;;;2.75;;
62861;SDS011;48953;53.110;5.592;2022-07-29T14:40:17;3.58;;;3.08;;
62861;SDS011;48953;53.110;5.592;2022-07-29T14:42:43;5.32;;;2.85;;
62861;SDS011;48953;53.110;5.592;2022-07-29T14:45:08;5.28;;;2.80;;
62861;SDS011;48953;53.110;5.592;2022-07-29T14:47:34;4.10;;;2.53;;
62861;SDS011;48953;53.110;5.592;2022-07-29T14:50:01;2.63;;;2.13;;
62861;SDS011;48953;53.110;5.592;2022-07-29T14:52:27;4.63;;;2.95;;
62861;SDS011;48953;53.110;5.592;2022-07-29T14:54:52;5.80;;;2.83;;
62861;SDS011;48953;53.110;5.592;2022-07-29T14:57:18;6.47;;;2.75;;
62861;SDS011;48953;53.110;5.592;2022-07-29T14:59:43;4.63;;;2.50;;
62861;SDS011;48953;53.110;5.592;2022-07-29T15:02:09;4.30;;;3.10;;
62861;SDS011;48953;53.110;5.592;2022-07-29T15:04:34;6.78;;;3.47;;
62861;SDS011;48953;53.110;5.592;2022-07-29T15:07:00;4.78;;;2.80;;
62861;SDS011;48953;53.110;5.592;2022-07-29T15:09:26;5.78;;;3.20;;
62861;SDS011;48953;53.110;5.592;2022-07-29T15:11:51;5.18;;;3.20;;
62861;SDS011;48953;53.110;5.592;2022-07-29T15:14:17;6.20;;;2.78;;
62861;SDS011;48953;53.110;5.592;2022-07-29T15:16:42;3.60;;;2.90;;
62861;SDS011;48953;53.110;5.592;2022-07-29T15:19:08;9.07;;;3.35;;
62861;SDS011;48953;53.110;5.592;2022-07-29T15:21:34;7.85;;;3.60;;
62861;SDS011;48953;53.110;5.592;2022-07-29T15:24:00;5.18;;;2.95;;
62861;SDS011;48953;53.110;5.592;2022-07-29T15:26:26;4.38;;;2.95;;
62861;SDS011;48953;53.110;5.592;2022-07-29T15:28:51;5.03;;;3.10;;
62861;SDS011;48953;53.110;5.592;2022-07-29T15:31:17;6.88;;;3.03;;
62861;SDS011;48953;53.110;5.592;2022-07-29T15:33:44;5.75;;;3.35;;
62861;SDS011;48953;53.110;5.592;2022-07-29T15:36:09;7.90;;;2.88;;
62861;SDS011;48953;53.110;5.592;2022-07-29T15:38:37;5.35;;;3.28;;
62861;SDS011;48953;53.110;5.592;2022-07-29T15:41:03;6.90;;;3.40;;
62861;SDS011;48953;53.110;5.592;2022-07-29T15:43:28;5.20;;;3.10;;
62861;SDS011;48953;53.110;5.592;2022-07-29T15:45:54;5.20;;;3.47;;
62861;SDS011;48953;53.110;5.592;2022-07-29T15:48:39;5.28;;;3.50;;
62861;SDS011;48953;53.110;5.592;2022-07-29T15:51:04;5.60;;;3.90;;
62861;SDS011;48953;53.110;5.592;2022-07-29T15:53:30;5.30;;;3.35;;
62861;SDS011;48953;53.110;5.592;2022-07-29T15:55:55;5.63;;;3.15;;